CPX427 Details

Departure: El Paso International Airport (KELP)
Arrival: Tulsa International Airport (KTUL)
Route: TDOWN3 TDOWN SFL HOMET SPS IRW


Current Weather Information
KELP 250951Z 00000KT 10SM FEW220 18/M05 A2992 RMK AO2 SLP059 T01781050
KTUL 250953Z 16006KT 10SM BKN008 OVC210 19/19 A2996 RMK AO2 SLP139 BKN V OVC T01940189